Time;durP1;ratioP1;P1;durP2;ratioP2;P2;SDS_P1;SDS_P2;PMS_P1;PMS_P2;Temp;Humidity;BMP_temperature;BMP_pressure;BME280_temperature;BME280_humidity;BME280_pressure;Samples;Min_cycle;Max_cycle;Signal;HPM_P1;HPM_P2
2022/09/23 00:00:31;;;;;;;;;;;;;;;7.84;74.30;96728.28;5073310;28;19958;-78
2022/09/23 00:02:58;;;;;;;;;;;;;;;7.80;74.11;96734.88;5073458;28;19953;-78
2022/09/23 00:05:25;;;;;;;;;;;;;;;7.79;74.44;96738.47;5072621;28;19956;-78
2022/09/23 00:07:51;;;;;;;;;;;;;;;7.76;74.88;96734.44;5073581;28;20345;-78
2022/09/23 00:10:17;;;;;;;;;;;;;;;7.72;74.89;96735.84;5073359;28;19950;-78
2022/09/23 00:12:43;;;;;;;;;;;;;;;7.71;74.97;96731.63;5072560;28;19963;-78
2022/09/23 00:15:10;;;;;;;;;;;;;;;7.68;75.77;96735.41;5038941;28;19967;-77
2022/09/23 00:17:36;;;;;;;;;;;;;;;7.66;75.21;96729.56;5058059;28;20445;-78
2022/09/23 00:20:02;;;;;;;;;;;;;;;7.63;74.88;96723.94;5073590;28;19988;-77
2022/09/23 00:22:28;;;;;;;;;;;;;;;7.62;74.90;96724.94;5073499;28;19956;-77
2022/09/23 00:24:54;;;;;;;;;;;;;;;7.64;74.88;96736.81;5073293;28;19998;-78
2022/09/23 00:27:20;;;;;;;;;;;;;;;7.60;75.55;96732.97;5073215;28;19971;-78
2022/09/23 00:29:47;;;;;;;;;;;;;;;7.58;75.31;96726.31;5073169;28;19967;-78
2022/09/23 00:32:13;;;;;;;;;;;;;;;7.56;75.32;96731.75;5055292;28;20432;-76
2022/09/23 00:34:39;;;;;;;;;;;;;;;7.53;75.07;96727.69;5073067;28;20369;-77
2022/09/23 00:37:04;;;;;;;;;;;;;;;7.53;75.85;96724.28;5055119;28;19956;-77
2022/09/23 00:39:30;;;;;;;;;;;;;;;7.51;76.04;96734.91;5073116;28;19959;-78
2022/09/23 00:41:56;;;;;;;;;;;;;;;7.47;75.41;96725.03;5072453;28;19953;-78
2022/09/23 00:44:41;;;;;;;;;;;;;;;7.44;75.47;96723.63;5072963;28;19947;-77
2022/09/23 00:47:22;;;;;;;;;;;;;;;7.43;75.45;96721.19;5073458;28;19960;-75
2022/09/23 00:49:55;;;;;;;;;;;;;;;7.41;75.82;96723.19;5072958;28;19953;-75
2022/09/23 00:52:22;;;;;;;;;;;;;;;7.39;76.09;96730.41;5073490;28;19958;-75
2022/09/23 00:54:51;;;;;;;;;;;;;;;7.37;76.09;96725.41;5072694;28;19963;-78
2022/09/23 00:57:19;;;;;;;;;;;;;;;7.34;76.11;96719.75;5073642;28;20337;-77
2022/09/23 00:59:45;;;;;;;;;;;;;;;7.32;76.06;96718.13;5076445;28;19954;-78
2022/09/23 01:02:13;;;;;;;;;;;;;;;7.32;75.76;96709.50;5076846;28;20397;-77
2022/09/23 01:04:39;;;;;;;;;;;;;;;7.31;76.48;96710.50;5076328;28;19949;-77
2022/09/23 01:07:05;;;;;;;;;;;;;;;7.28;76.60;96710.88;5076300;28;19960;-78
2022/09/23 01:09:31;;;;;;;;;;;;;;;7.25;76.35;96706.03;5076400;28;20002;-78
2022/09/23 01:11:57;;;;;;;;;;;;;;;7.22;75.98;96703.78;5076229;28;19963;-77
2022/09/23 01:14:33;;;;;;;;;;;;;;;7.22;75.94;96706.41;5076272;28;19965;-78
2022/09/23 01:17:06;;;;;;;;;;;;;;;7.20;75.40;96696.19;5067597;28;19955;-77
2022/09/23 01:19:35;;;;;;;;;;;;;;;7.19;75.46;96698.97;5076339;28;19960;-78
2022/09/23 01:22:13;;;;;;;;;;;;;;;7.18;75.67;96697.34;5076162;28;20311;-78
2022/09/23 01:24:45;;;;;;;;;;;;;;;7.17;75.18;96686.13;5076446;28;19948;-77
2022/09/23 01:27:21;;;;;;;;;;;;;;;7.15;74.86;96682.88;5076213;28;19955;-78
2022/09/23 01:29:52;;;;;;;;;;;;;;;7.14;74.54;96691.72;5075913;28;19949;-78
2022/09/23 01:32:32;;;;;;;;;;;;;;;7.12;74.51;96688.50;5075963;28;19960;-77
2022/09/23 01:35:04;;;;;;;;;;;;;;;7.09;75.81;96692.25;5065858;28;19962;-78
2022/09/23 01:37:36;;;;;;;;;;;;;;;7.07;75.19;96696.88;5076093;28;19954;-78
2022/09/23 01:40:06;;;;;;;;;;;;;;;7.04;75.52;96699.06;5076086;28;20431;-78
2022/09/23 01:42:41;;;;;;;;;;;;;;;7.03;74.92;96692.22;5075694;28;20315;-78
2022/09/23 01:45:11;;;;;;;;;;;;;;;7.00;74.50;96693.41;5075911;28;19950;-78
2022/09/23 01:47:47;;;;;;;;;;;;;;;6.98;75.00;96687.56;5075947;28;19951;-78
2022/09/23 01:53:10;;;;;;;;;;;;;;;6.92;75.36;96685.72;5075430;28;19962;-77
2022/09/23 01:55:42;;;;;;;;;;;;;;;6.90;75.53;96692.94;5075042;28;19975;-77
2022/09/23 01:58:15;;;;;;;;;;;;;;;6.85;76.15;96695.31;5075512;28;19961;-78
2022/09/23 02:00:48;;;;;;;;;;;;;;;6.80;75.78;96690.63;5074959;28;19966;-77
2022/09/23 02:03:17;;;;;;;;;;;;;;;6.77;75.87;96685.00;5075562;28;20403;-77
2022/09/23 02:05:46;;;;;;;;;;;;;;;6.73;75.63;96683.75;5075305;28;19961;-77
2022/09/23 02:08:19;;;;;;;;;;;;;;;6.69;75.49;96678.91;5075072;28;19948;-77
2022/09/23 02:10:45;;;;;;;;;;;;;;;6.68;75.72;96679.91;5074579;28;19957;-77
2022/09/23 02:13:17;;;;;;;;;;;;;;;6.67;75.46;96683.50;5075009;28;19950;-77
2022/09/23 02:15:48;;;;;;;;;;;;;;;6.66;75.73;96681.91;5074900;28;20350;-78
2022/09/23 02:18:22;;;;;;;;;;;;;;;6.66;75.90;96684.50;5075829;28;19980;-77
2022/09/23 02:20:49;;;;;;;;;;;;;;;6.67;76.10;96688.72;5075005;28;19955;-78
2022/09/23 02:23:26;;;;;;;;;;;;;;;6.66;75.90;96683.72;5074563;28;19964;-77
2022/09/23 02:26:07;;;;;;;;;;;;;;;6.65;76.28;96682.09;5060672;28;19952;-77
2022/09/23 02:28:43;;;;;;;;;;;;;;;6.63;76.77;96692.69;5074735;28;19988;-77
2022/09/23 02:31:20;;;;;;;;;;;;;;;6.58;77.07;96683.84;5074907;28;19953;-78
2022/09/23 02:34:12;;;;;;;;;;;;;;;6.54;76.46;96686.00;5062038;28;19956;-78
2022/09/23 02:36:57;;;;;;;;;;;;;;;6.50;75.75;96675.13;5071036;28;19961;-78
2022/09/23 02:39:27;;;;;;;;;;;;;;;6.48;75.85;96679.72;5066441;28;20020;-78
2022/09/23 02:41:57;;;;;;;;;;;;;;;6.46;76.31;96679.09;5074473;28;19973;-78
2022/09/23 02:44:24;;;;;;;;;;;;;;;6.45;76.94;96684.53;5074389;28;19953;-78
2022/09/23 02:46:52;;;;;;;;;;;;;;;6.43;76.80;96684.69;5074888;28;19953;-78
2022/09/23 02:49:22;;;;;;;;;;;;;;;6.40;77.03;96677.22;5074614;28;19953;-78
2022/09/23 02:51:48;;;;;;;;;;;;;;;6.38;76.98;96673.22;5074235;28;19948;-77
2022/09/23 02:54:19;;;;;;;;;;;;;;;6.37;76.77;96663.78;5074552;28;19970;-77
2022/09/23 02:56:47;;;;;;;;;;;;;;;6.37;76.58;96667.19;5074346;28;20322;-78
2022/09/23 02:59:16;;;;;;;;;;;;;;;6.39;77.17;96672.25;5074889;28;19958;-77
2022/09/23 03:01:51;;;;;;;;;;;;;;;6.38;77.03;96668.00;5074435;28;20273;-77
2022/09/23 03:04:37;;;;;;;;;;;;;;;6.37;77.13;96672.41;5074428;28;20395;-77
2022/09/23 03:07:05;;;;;;;;;;;;;;;6.38;76.96;96662.78;5065213;28;19956;-78
2022/09/23 03:09:34;;;;;;;;;;;;;;;6.36;77.00;96667.38;5062986;28;20014;-78
2022/09/23 03:12:11;;;;;;;;;;;;;;;6.33;76.90;96657.34;5074002;28;19956;-78
2022/09/23 03:14:49;;;;;;;;;;;;;;;6.33;77.10;96659.94;5074316;28;19970;-78
2022/09/23 03:17:30;;;;;;;;;;;;;;;6.31;77.37;96662.72;5074088;28;19956;-78
2022/09/23 03:20:04;;;;;;;;;;;;;;;6.30;77.18;96655.94;5074084;28;19961;-77
2022/09/23 03:22:36;;;;;;;;;;;;;;;6.29;77.22;96654.28;5073820;28;20061;-77
2022/09/23 03:25:06;;;;;;;;;;;;;;;6.27;76.93;96648.47;5074116;28;20337;-78
2022/09/23 03:27:33;;;;;;;;;;;;;;;6.26;77.10;96652.06;5073111;28;19961;-78
2022/09/23 03:29:59;;;;;;;;;;;;;;;6.24;77.47;96654.06;5073780;28;19959;-78
2022/09/23 03:32:27;;;;;;;;;;;;;;;6.23;77.14;96650.63;5073633;28;19957;-78
2022/09/23 03:34:56;;;;;;;;;;;;;;;6.22;78.20;96658.66;5073887;28;19975;-78
2022/09/23 03:37:25;;;;;;;;;;;;;;;6.20;78.06;96653.63;5061288;28;19946;-78
2022/09/23 03:40:06;;;;;;;;;;;;;;;6.18;79.04;96652.19;5073627;28;20427;-78
2022/09/23 03:42:32;;;;;;;;;;;;;;;6.17;78.70;96647.97;5073785;28;19947;-78
2022/09/23 03:45:00;;;;;;;;;;;;;;;6.14;77.95;96641.34;5073998;28;19954;-78
2022/09/23 03:47:27;;;;;;;;;;;;;;;6.14;77.70;96640.53;5073960;28;19956;-78
2022/09/23 03:49:53;;;;;;;;;;;;;;;6.12;77.64;96638.09;5073748;28;19958;-78
2022/09/23 03:52:20;;;;;;;;;;;;;;;6.09;77.55;96636.69;5073437;28;19956;-78
2022/09/23 03:54:46;;;;;;;;;;;;;;;6.07;77.54;96633.47;5073264;28;19972;-78
2022/09/23 03:57:12;;;;;;;;;;;;;;;6.06;77.17;96633.63;5072524;28;19956;-78
2022/09/23 03:59:38;;;;;;;;;;;;;;;6.05;77.09;96632.84;5073574;28;19963;-78
2022/09/23 04:02:06;;;;;;;;;;;;;;;6.04;77.30;96633.00;5073546;28;19949;-78
2022/09/23 04:04:34;;;;;;;;;;;;;;;6.02;76.90;96622.78;5060887;28;19949;-78
2022/09/23 04:07:00;;;;;;;;;;;;;;;5.99;76.70;96625.75;5073544;28;19953;-78
2022/09/23 04:09:26;;;;;;;;;;;;;;;5.97;76.69;96621.72;5073603;28;19953;-78
2022/09/23 04:11:52;;;;;;;;;;;;;;;5.96;77.47;96623.50;5073247;28;20329;-78
2022/09/23 04:14:19;;;;;;;;;;;;;;;5.93;77.42;96626.47;5072763;28;19975;-77
2022/09/23 04:16:45;;;;;;;;;;;;;;;5.91;77.49;96623.22;5073435;28;19958;-77
2022/09/23 04:19:12;;;;;;;;;;;;;;;5.88;77.25;96627.03;5073791;28;19976;-77
2022/09/23 04:30:00;;;;;;;;;;;;;;;5.81;77.06;96620.13;5225469;23;19988;-76
2022/09/23 04:32:26;;;;;;;;;;;;;;;5.79;77.09;96624.69;4898858;29;19965;-76
2022/09/23 04:34:52;;;;;;;;;;;;;;;5.74;76.92;96621.84;4901297;29;20047;-75
2022/09/23 04:37:18;;;;;;;;;;;;;;;5.72;77.08;96629.81;4901701;29;20018;-76
2022/09/23 04:39:44;;;;;;;;;;;;;;;5.72;77.29;96626.44;4881976;29;19960;-76
2022/09/23 04:42:10;;;;;;;;;;;;;;;5.68;76.92;96621.56;4891551;29;19983;-76
2022/09/23 04:44:37;;;;;;;;;;;;;;;5.67;77.12;96624.38;4901718;29;20383;-75
2022/09/23 04:47:03;;;;;;;;;;;;;;;5.66;77.18;96622.75;4900746;29;20296;-76
2022/09/23 04:49:31;;;;;;;;;;;;;;;5.64;77.39;96624.72;4901515;29;19961;-75
2022/09/23 04:51:57;;;;;;;;;;;;;;;5.62;77.23;96624.91;4901740;29;19968;-76
2022/09/23 04:54:22;;;;;;;;;;;;;;;5.62;77.21;96622.28;4900841;29;19956;-75
2022/09/23 04:56:48;;;;;;;;;;;;;;;5.62;77.38;96629.31;4900880;29;19963;-75
2022/09/23 04:59:14;;;;;;;;;;;;;;;5.61;77.63;96631.09;4901188;29;19992;-75
2022/09/23 05:01:40;;;;;;;;;;;;;;;5.61;77.83;96627.69;4900981;29;20024;-76
2022/09/23 05:04:07;;;;;;;;;;;;;;;5.61;77.60;96633.72;4899954;29;20427;-76
2022/09/23 05:06:33;;;;;;;;;;;;;;;5.60;77.34;96629.47;4901049;29;19956;-76
2022/09/23 05:08:59;;;;;;;;;;;;;;;5.61;77.39;96625.09;4901069;29;20325;-76
2022/09/23 05:11:26;;;;;;;;;;;;;;;5.60;77.59;96636.47;4900897;29;19952;-76
2022/09/23 05:13:52;;;;;;;;;;;;;;;5.60;77.25;96637.28;4899815;29;19955;-76
2022/09/23 05:16:19;;;;;;;;;;;;;;;5.59;77.40;96635.69;4900066;29;19976;-76
2022/09/23 05:18:45;;;;;;;;;;;;;;;5.59;77.41;96640.09;4901115;29;19952;-76
2022/09/23 05:21:13;;;;;;;;;;;;;;;5.59;77.58;96638.28;4901055;29;19965;-76
2022/09/23 05:23:39;;;;;;;;;;;;;;;5.59;77.92;96643.50;4901185;29;20049;-76
2022/09/23 05:26:08;;;;;;;;;;;;;;;5.58;78.30;96646.25;4900756;29;19955;-76
2022/09/23 05:28:38;;;;;;;;;;;;;;;5.58;78.11;96644.47;4890701;29;20415;-76
2022/09/23 05:31:05;;;;;;;;;;;;;;;5.57;78.15;96644.66;4900299;29;20008;-76
2022/09/23 05:33:31;;;;;;;;;;;;;;;5.56;77.97;96640.44;4900726;29;20437;-76
2022/09/23 05:35:57;;;;;;;;;;;;;;;5.55;77.72;96634.44;4900626;29;19985;-76
2022/09/23 05:38:24;;;;;;;;;;;;;;;5.57;77.70;96644.66;4900493;29;19997;-77
2022/09/23 05:40:56;;;;;;;;;;;;;;;5.57;77.95;96635.06;4900254;29;20297;-76
2022/09/23 05:43:23;;;;;;;;;;;;;;;5.57;77.83;96642.88;4899756;29;19966;-76
2022/09/23 05:45:49;;;;;;;;;;;;;;;5.68;78.16;96644.19;4899655;29;19957;-76
2022/09/23 05:48:15;;;;;;;;;;;;;;;6.03;77.54;96645.22;4900589;29;20037;-76
2022/09/23 05:50:50;;;;;;;;;;;;;;;6.49;76.09;96629.25;4900618;29;20008;-76
2022/09/23 05:53:17;;;;;;;;;;;;;;;7.05;74.58;96617.22;4900596;29;19955;-76
2022/09/23 05:55:44;;;;;;;;;;;;;;;7.51;73.42;96603.63;4900076;29;19981;-76
2022/09/23 05:58:13;;;;;;;;;;;;;;;8.00;72.11;96599.16;4900512;29;19958;-76
2022/09/23 06:00:39;;;;;;;;;;;;;;;8.51;70.89;96585.59;4900146;29;19960;-76
2022/09/23 06:03:10;;;;;;;;;;;;;;;9.00;69.72;96570.47;4899957;29;19970;-76
2022/09/23 06:05:36;;;;;;;;;;;;;;;9.41;68.50;96572.78;4900348;29;20397;-76
2022/09/23 06:08:02;;;;;;;;;;;;;;;9.64;67.64;96560.97;4900373;29;20019;-76
2022/09/23 06:10:28;;;;;;;;;;;;;;;9.75;67.09;96553.28;4900174;29;19994;-76
2022/09/23 06:12:54;;;;;;;;;;;;;;;9.73;66.51;96546.66;4900020;29;20103;-76
2022/09/23 06:15:20;;;;;;;;;;;;;;;9.65;66.42;96547.69;4899727;29;19977;-76
2022/09/23 06:17:49;;;;;;;;;;;;;;;9.48;66.44;96557.81;4900077;29;19959;-76
2022/09/23 06:20:15;;;;;;;;;;;;;;;9.35;66.85;96557.88;4900030;29;19964;-76
2022/09/23 06:22:41;;;;;;;;;;;;;;;9.40;66.91;96555.44;4898609;29;19960;-76
2022/09/23 06:25:07;;;;;;;;;;;;;;;9.52;66.95;96551.16;4896880;29;19998;-76
2022/09/23 06:27:33;;;;;;;;;;;;;;;9.62;66.92;96544.69;4899831;29;19969;-75
2022/09/23 06:29:59;;;;;;;;;;;;;;;9.64;66.69;96545.25;4899463;29;19955;-76
2022/09/23 06:32:25;;;;;;;;;;;;;;;9.55;66.20;96535.06;4899790;29;20052;-76
2022/09/23 06:34:50;;;;;;;;;;;;;;;9.38;66.12;96541.75;4899402;29;20060;-76
2022/09/23 06:37:16;;;;;;;;;;;;;;;9.35;67.46;96544.81;4899835;29;20327;-76
2022/09/23 06:39:42;;;;;;;;;;;;;;;9.32;66.98;96553.88;4899321;29;20001;-76
2022/09/23 06:42:08;;;;;;;;;;;;;;;9.21;67.61;96557.13;4899493;29;19958;-76
2022/09/23 06:44:34;;;;;;;;;;;;;;;9.11;67.70;96562.81;4899383;29;20442;-76
2022/09/23 06:47:00;;;;;;;;;;;;;;;9.03;68.52;96567.41;4899242;29;19958;-76
2022/09/23 06:49:26;;;;;;;;;;;;;;;9.10;69.69;96587.34;4899233;29;19967;-75
2022/09/23 06:51:51;;;;;;;;;;;;;;;9.22;70.08;96579.69;4898016;29;20534;-75
2022/09/23 06:54:18;;;;;;;;;;;;;;;9.32;70.06;96579.22;4899791;29;20017;-75
2022/09/23 06:56:46;;;;;;;;;;;;;;;9.39;69.37;96572.16;4899400;29;20456;-76
2022/09/23 06:59:15;;;;;;;;;;;;;;;9.41;70.92;96585.03;4899180;29;19972;-75
2022/09/23 07:01:42;;;;;;;;;;;;;;;9.44;69.36;96579.41;4899098;29;20443;-76
2022/09/23 07:04:08;;;;;;;;;;;;;;;9.44;69.61;96574.16;4899437;29;19963;-75
2022/09/23 07:06:36;;;;;;;;;;;;;;;9.55;70.96;96586.59;4898720;29;20322;-75
2022/09/23 07:09:02;;;;;;;;;;;;;;;9.70;70.25;96581.09;4899809;29;19954;-75
2022/09/23 07:11:28;;;;;;;;;;;;;;;9.80;71.37;96593.75;4899071;29;19961;-76
2022/09/23 07:13:54;;;;;;;;;;;;;;;9.94;70.33;96574.34;4899292;29;19952;-75
2022/09/23 07:16:20;;;;;;;;;;;;;;;10.12;70.54;96581.47;4899225;29;20015;-75
2022/09/23 07:18:46;;;;;;;;;;;;;;;10.09;69.39;96569.59;4899016;29;19959;-75
2022/09/23 07:21:13;;;;;;;;;;;;;;;10.07;69.94;96574.25;4898962;29;20327;-75
2022/09/23 07:23:44;;;;;;;;;;;;;;;10.17;71.35;96592.13;4899452;29;19958;-76
2022/09/23 07:26:11;;;;;;;;;;;;;;;10.30;70.31;96576.34;4899209;29;19962;-76
2022/09/23 07:28:37;;;;;;;;;;;;;;;10.32;68.78;96563.81;4899042;29;20332;-75
2022/09/23 07:31:05;;;;;;;;;;;;;;;10.29;68.99;96569.50;4897638;29;19990;-76
2022/09/23 07:33:33;;;;;;;;;;;;;;;10.19;68.59;96563.09;4884661;29;19959;-75
2022/09/23 07:36:06;;;;;;;;;;;;;;;10.14;69.22;96567.16;4898875;29;19972;-75
2022/09/23 07:38:31;;;;;;;;;;;;;;;10.08;69.61;96572.41;4898722;29;19957;-76
2022/09/23 07:41:02;;;;;;;;;;;;;;;10.09;69.61;96574.84;4897356;29;19978;-75
2022/09/23 07:43:31;;;;;;;;;;;;;;;10.08;69.63;96573.25;4898388;29;19966;-75
2022/09/23 07:45:58;;;;;;;;;;;;;;;10.00;69.17;96563.00;4899054;29;19957;-76
2022/09/23 07:48:24;;;;;;;;;;;;;;;9.96;69.79;96574.94;4898408;29;19955;-76
2022/09/23 07:50:50;;;;;;;;;;;;;;;10.04;71.33;96589.59;4898494;29;19962;-76
2022/09/23 07:53:16;;;;;;;;;;;;;;;10.15;71.42;96594.97;4898928;29;20439;-76
2022/09/23 07:55:42;;;;;;;;;;;;;;;10.24;71.00;96585.03;4898499;29;20009;-75
2022/09/23 07:58:07;;;;;;;;;;;;;;;10.28;70.38;96585.41;4898281;29;20006;-76
2022/09/23 08:00:35;;;;;;;;;;;;;;;10.32;72.15;96605.78;4898593;29;19997;-75
2022/09/23 08:03:00;;;;;;;;;;;;;;;10.39;71.08;96590.00;4898323;29;19959;-75
2022/09/23 08:05:27;;;;;;;;;;;;;;;10.47;71.79;96597.59;4898557;29;19970;-75
2022/09/23 08:07:53;;;;;;;;;;;;;;;10.50;70.18;96588.53;4898375;29;19965;-76
2022/09/23 08:10:19;;;;;;;;;;;;;;;10.55;70.25;96584.22;4902413;29;20005;-75
2022/09/23 08:12:46;;;;;;;;;;;;;;;10.60;69.74;96573.09;4902473;29;19966;-75
2022/09/23 08:15:12;;;;;;;;;;;;;;;10.65;69.77;96583.75;4902011;29;19969;-75
2022/09/23 08:17:38;;;;;;;;;;;;;;;10.71;71.07;96596.00;4902454;29;20090;-75
2022/09/23 08:20:04;;;;;;;;;;;;;;;10.75;69.88;96593.75;4902289;29;20413;-75
2022/09/23 08:22:30;;;;;;;;;;;;;;;10.66;70.07;96589.78;4902596;29;20452;-75
2022/09/23 08:24:57;;;;;;;;;;;;;;;10.57;69.17;96582.19;4902187;29;19962;-75
2022/09/23 08:27:23;;;;;;;;;;;;;;;10.48;70.26;96593.97;4902294;29;19968;-75
2022/09/23 08:29:48;;;;;;;;;;;;;;;10.46;70.87;96598.63;4901942;29;20069;-75
2022/09/23 08:32:15;;;;;;;;;;;;;;;10.45;71.78;96604.88;4901637;29;20025;-76
2022/09/23 08:34:41;;;;;;;;;;;;;;;10.46;70.45;96589.97;4901959;29;19959;-75
2022/09/23 08:37:10;;;;;;;;;;;;;;;10.52;71.75;96599.56;4902073;29;19973;-75
2022/09/23 08:39:36;;;;;;;;;;;;;;;10.61;71.70;96603.56;4900785;29;20337;-75
2022/09/23 08:42:06;;;;;;;;;;;;;;;10.68;70.68;96587.75;4902002;29;19964;-76
2022/09/23 08:44:45;;;;;;;;;;;;;;;10.68;71.38;96599.03;4888121;29;19957;-76
2022/09/23 08:47:11;;;;;;;;;;;;;;;10.71;72.04;96600.47;4902148;29;19976;-76
2022/09/23 08:49:57;;;;;;;;;;;;;;;10.79;71.68;96588.88;4901373;29;19956;-75
2022/09/23 08:52:42;;;;;;;;;;;;;;;10.81;70.58;96581.59;4901149;29;19973;-75
2022/09/23 08:55:12;;;;;;;;;;;;;;;10.95;72.35;96596.19;4891529;29;19958;-75
2022/09/23 08:57:58;;;;;;;;;;;;;;;11.10;72.04;96591.41;4901556;29;19948;-75
2022/09/23 09:00:27;;;;;;;;;;;;;;;11.31;70.96;96590.19;4900943;29;19967;-76
2022/09/23 09:02:54;;;;;;;;;;;;;;;11.51;70.13;96582.09;4901780;29;20441;-75
2022/09/23 09:05:25;;;;;;;;;;;;;;;11.71;68.66;96568.69;4901318;29;19962;-75
2022/09/23 09:07:51;;;;;;;;;;;;;;;11.89;68.50;96570.53;4901502;29;19950;-75
2022/09/23 09:10:20;;;;;;;;;;;;;;;11.97;68.29;96562.34;4901192;29;19958;-75
2022/09/23 09:12:48;;;;;;;;;;;;;;;12.13;67.35;96552.19;4901372;29;19966;-76
2022/09/23 09:15:18;;;;;;;;;;;;;;;12.28;66.30;96533.38;4901197;29;19963;-76
2022/09/23 09:17:47;;;;;;;;;;;;;;;12.37;67.45;96548.59;4899594;29;19972;-76
2022/09/23 09:20:19;;;;;;;;;;;;;;;12.57;68.90;96556.16;4901100;29;19958;-75
2022/09/23 09:22:58;;;;;;;;;;;;;;;12.73;67.33;96540.75;4901129;29;19961;-75
2022/09/23 09:25:36;;;;;;;;;;;;;;;12.82;66.38;96528.81;4901251;29;19952;-76
2022/09/23 09:28:10;;;;;;;;;;;;;;;12.89;66.78;96523.44;4901024;29;19952;-75
2022/09/23 09:30:36;;;;;;;;;;;;;;;13.01;66.37;96524.22;4901320;29;19981;-75
2022/09/23 09:33:12;;;;;;;;;;;;;;;13.04;65.21;96510.63;4901350;29;20037;-75
2022/09/23 09:35:52;;;;;;;;;;;;;;;13.08;66.68;96510.94;4900858;29;19983;-75
2022/09/23 09:38:20;;;;;;;;;;;;;;;13.13;65.79;96509.22;4900665;29;19971;-75
2022/09/23 09:40:47;;;;;;;;;;;;;;;13.14;66.44;96516.06;4901228;29;19976;-75
2022/09/23 09:43:22;;;;;;;;;;;;;;;13.21;66.75;96518.59;4900608;29;19958;-75
2022/09/23 09:45:52;;;;;;;;;;;;;;;13.20;66.66;96511.72;4900852;29;19955;-75
2022/09/23 09:48:36;;;;;;;;;;;;;;;13.24;66.33;96507.59;4900673;29;19970;-75
2022/09/23 09:51:17;;;;;;;;;;;;;;;13.29;66.19;96509.56;4901018;29;19951;-76
2022/09/23 09:53:43;;;;;;;;;;;;;;;13.37;65.86;96507.34;4900525;29;20419;-75
2022/09/23 09:56:11;;;;;;;;;;;;;;;13.36;65.92;96503.13;4900692;29;19987;-75
2022/09/23 09:58:43;;;;;;;;;;;;;;;13.42;66.31;96506.66;4900663;29;19957;-76
2022/09/23 10:01:29;;;;;;;;;;;;;;;13.48;65.39;96503.09;4900766;29;19973;-76
2022/09/23 10:04:03;;;;;;;;;;;;;;;13.54;66.22;96499.53;4900594;29;19959;-76
2022/09/23 10:06:31;;;;;;;;;;;;;;;13.60;65.87;96495.13;4900562;29;20426;-75
2022/09/23 10:09:03;;;;;;;;;;;;;;;13.68;66.86;96500.03;4900441;29;19945;-75
2022/09/23 10:11:30;;;;;;;;;;;;;;;13.83;67.82;96504.78;4900262;29;20412;-75
2022/09/23 10:14:01;;;;;;;;;;;;;;;13.92;65.58;96487.56;4900755;29;19958;-75
2022/09/23 10:16:30;;;;;;;;;;;;;;;13.96;67.24;96506.31;4900093;29;19976;-75
2022/09/23 10:18:57;;;;;;;;;;;;;;;14.11;67.95;96511.84;4900162;29;19953;-75
2022/09/23 10:21:24;;;;;;;;;;;;;;;14.30;65.73;96488.69;4900061;29;20410;-75
2022/09/23 10:23:51;;;;;;;;;;;;;;;14.45;65.35;96484.66;4900102;29;19960;-76
2022/09/23 10:26:25;;;;;;;;;;;;;;;14.60;66.72;96498.13;4899983;29;19952;-75
2022/09/23 10:28:54;;;;;;;;;;;;;;;14.78;64.04;96466.19;4900208;29;19960;-76
2022/09/23 10:31:23;;;;;;;;;;;;;;;14.94;65.98;96476.94;4899389;29;19984;-76
2022/09/23 10:33:54;;;;;;;;;;;;;;;15.06;63.81;96461.00;4899741;29;19965;-75
2022/09/23 10:36:20;;;;;;;;;;;;;;;15.14;64.30;96455.25;4899583;29;19975;-75
2022/09/23 10:38:48;;;;;;;;;;;;;;;15.26;63.56;96448.00;4900027;29;20021;-75
2022/09/23 10:46:58;;;;;;;;;;;;;;;15.77;61.50;96430.06;4899469;29;19988;-75
2022/09/23 10:49:30;;;;;;;;;;;;;;;15.95;61.43;96433.38;4899784;29;19974;-75
2022/09/23 10:52:15;;;;;;;;;;;;;;;16.19;61.64;96431.97;4899466;29;19959;-75
2022/09/23 10:54:54;;;;;;;;;;;;;;;16.40;58.10;96400.34;4899373;29;19962;-75
2022/09/23 10:57:41;;;;;;;;;;;;;;;16.42;60.28;96428.16;4899479;29;19973;-75
2022/09/23 11:00:07;;;;;;;;;;;;;;;16.60;59.71;96421.63;4899486;29;19963;-75
2022/09/23 11:02:33;;;;;;;;;;;;;;;16.79;58.14;96426.50;4899257;29;19969;-75
2022/09/23 11:05:22;;;;;;;;;;;;;;;16.95;58.93;96438.00;4899359;29;19985;-75
2022/09/23 11:08:06;;;;;;;;;;;;;;;17.20;57.45;96434.66;4891334;29;19951;-75
2022/09/23 11:10:38;;;;;;;;;;;;;;;17.47;58.49;96450.38;4899698;29;20021;-75
2022/09/23 11:13:14;;;;;;;;;;;;;;;17.67;57.22;96441.63;4898976;29;19965;-75
2022/09/23 11:15:49;;;;;;;;;;;;;;;17.72;54.68;96430.25;4899369;29;19967;-75
2022/09/23 11:18:41;;;;;;;;;;;;;;;17.77;51.99;96428.41;4899226;29;19958;-75
2022/09/23 11:21:22;;;;;;;;;;;;;;;17.77;52.77;96428.41;4887998;29;19961;-75
2022/09/23 11:23:48;;;;;;;;;;;;;;;17.83;53.07;96424.72;4892532;29;19963;-75
2022/09/23 11:26:27;;;;;;;;;;;;;;;17.97;55.37;96430.28;4898900;29;20005;-75
2022/09/23 11:29:12;;;;;;;;;;;;;;;18.05;54.97;96436.91;4899203;29;19961;-75
2022/09/23 11:31:52;;;;;;;;;;;;;;;18.30;57.09;96445.94;4898761;29;20007;-75
2022/09/23 11:34:29;;;;;;;;;;;;;;;18.56;56.39;96430.75;4898782;29;19963;-75
2022/09/23 11:36:58;;;;;;;;;;;;;;;18.70;53.11;96407.88;4898831;29;20437;-75
2022/09/23 11:39:31;;;;;;;;;;;;;;;18.78;52.10;96402.03;4898744;29;19961;-75
2022/09/23 11:41:59;;;;;;;;;;;;;;;18.90;52.67;96408.91;4899184;29;19955;-75
2022/09/23 11:44:32;;;;;;;;;;;;;;;19.08;53.73;96416.28;4898416;29;19961;-75
2022/09/23 11:47:01;;;;;;;;;;;;;;;19.26;51.11;96406.88;4887080;29;19955;-75
2022/09/23 11:49:28;;;;;;;;;;;;;;;19.34;51.23;96414.28;4898467;29;19959;-75
2022/09/23 11:51:54;;;;;;;;;;;;;;;19.38;51.31;96406.53;4898520;29;19957;-75
2022/09/23 11:54:25;;;;;;;;;;;;;;;19.43;50.12;96399.34;4898982;29;19989;-75
2022/09/23 11:56:55;;;;;;;;;;;;;;;19.44;49.52;96395.63;4898560;29;19973;-75
2022/09/23 11:59:30;;;;;;;;;;;;;;;19.48;51.17;96409.16;4898679;29;19962;-74
2022/09/23 12:02:16;;;;;;;;;;;;;;;19.62;51.06;96407.47;4898667;29;20424;-75
2022/09/23 12:04:50;;;;;;;;;;;;;;;19.79;51.15;96403.66;4869261;29;19959;-75
2022/09/23 12:07:20;;;;;;;;;;;;;;;19.79;48.49;96391.13;4898066;29;19966;-75
2022/09/23 12:09:59;;;;;;;;;;;;;;;19.80;51.54;96406.03;4898528;29;19961;-75
2022/09/23 12:12:27;;;;;;;;;;;;;;;19.76;48.97;96385.56;4898668;29;19956;-75
2022/09/23 12:15:01;;;;;;;;;;;;;;;19.56;47.68;96381.97;4898360;29;19956;-75
2022/09/23 12:17:30;;;;;;;;;;;;;;;19.40;50.84;96399.91;4897378;29;19981;-75
2022/09/23 12:20:08;;;;;;;;;;;;;;;19.31;48.79;96385.56;4884863;29;20446;-74
2022/09/23 12:22:38;;;;;;;;;;;;;;;19.32;51.36;96395.16;4898536;29;19966;-75
2022/09/23 12:25:22;;;;;;;;;;;;;;;19.41;51.10;96398.81;4898383;29;19964;-75
2022/09/23 12:27:50;;;;;;;;;;;;;;;19.59;50.39;96394.72;4898520;29;19955;-75
2022/09/23 12:30:20;;;;;;;;;;;;;;;19.63;50.64;96385.13;4898038;29;19991;-75
2022/09/23 12:32:46;;;;;;;;;;;;;;;19.75;51.21;96392.75;4898545;29;19966;-74
2022/09/23 12:35:38;;;;;;;;;;;;;;;19.87;50.98;96387.09;4898271;29;19988;-75
2022/09/23 12:38:18;;;;;;;;;;;;;;;19.83;47.48;96364.78;4895807;29;19977;-75
2022/09/23 12:40:44;;;;;;;;;;;;;;;19.80;49.19;96374.13;4898387;29;19961;-75
2022/09/23 12:43:29;;;;;;;;;;;;;;;19.90;50.46;96389.19;4898249;29;19960;-75
2022/09/23 12:46:15;;;;;;;;;;;;;;;20.08;49.77;96374.41;4891040;29;19971;-75
2022/09/23 12:48:45;;;;;;;;;;;;;;;20.23;48.68;96362.81;4886410;29;19963;-74
2022/09/23 12:51:11;;;;;;;;;;;;;;;20.24;47.98;96365.19;4898142;29;20340;-74
2022/09/23 12:53:54;;;;;;;;;;;;;;;20.09;48.03;96354.69;4899753;29;19953;-75
2022/09/23 12:56:19;;;;;;;;;;;;;;;20.06;48.90;96357.91;4901907;29;19973;-75
2022/09/23 12:58:45;;;;;;;;;;;;;;;20.05;48.98;96361.63;4900693;29;19961;-74
2022/09/23 13:01:14;;;;;;;;;;;;;;;20.07;49.98;96354.16;4900351;29;19967;-75
2022/09/23 13:06:42;;;;;;;;;;;;;;;20.12;48.35;96345.34;4901247;29;20017;-75
2022/09/23 13:09:28;;;;;;;;;;;;;;;20.21;49.82;96356.97;4901954;29;19963;-75
2022/09/23 13:11:59;;;;;;;;;;;;;;;20.28;46.72;96330.78;4900993;29;19962;-75
2022/09/23 13:14:26;;;;;;;;;;;;;;;20.34;49.38;96344.84;4901600;29;19967;-74
2022/09/23 13:16:53;;;;;;;;;;;;;;;20.48;49.09;96337.78;4901184;29;19978;-75
2022/09/23 13:19:25;;;;;;;;;;;;;;;20.56;46.48;96326.50;4901364;29;20332;-75
2022/09/23 13:21:57;;;;;;;;;;;;;;;20.47;48.44;96339.66;4899741;29;20320;-75
2022/09/23 13:24:29;;;;;;;;;;;;;;;20.55;46.11;96326.78;4890898;29;19950;-74
2022/09/23 13:27:01;;;;;;;;;;;;;;;20.73;48.42;96334.06;4901145;29;20335;-75